Hector, New York
Current Conditions -  °F | °C
As of 11:16 PM on Wednesday 26 Nov 2014 (Local Time) from KPEO Reporting Station
Light Snow Light Snow  
Wind Chill: 22°   Ceiling: 2200
Heat Index: 29°   Visibility: 7mi
Dew Point: 26°   Wind: 7mph
Humidity: 89%   Direction: 350°N
Pressure: 30"   Gusts: NA
Location:  42.5°N, 76.87°W
Report Text: KPEO 270416Z AUTO 35006KT 7SM -SN SCT010 BKN022 OVC090 M02/M03 A3000 RMK AO2 P0000 T10171033
Loading
Personal Weather Stations






























Interactive Weather Map New forecast layout! Learn more

10-Day Weather Forecast

Advertisements
Track Severe Weather on mobile